sensor_id;sensor_type;location;lat;lon;timestamp;temperature;humidity
21085;DHT22;34247;50.064;19.970;2023-03-21T04:14:35;26.10;32.90
21085;DHT22;34247;50.064;19.970;2023-03-21T04:15:47;26.10;32.90
21085;DHT22;34247;50.064;19.970;2023-03-21T04:16:51;26.10;32.90
21085;DHT22;34247;50.064;19.970;2023-03-21T04:17:56;26.00;32.90
21085;DHT22;34247;50.064;19.970;2023-03-21T04:19:00;26.10;33.10
21085;DHT22;34247;50.064;19.970;2023-03-21T04:20:05;26.10;33.00
21085;DHT22;34247;50.064;19.970;2023-03-21T04:21:20;26.10;33.00
21085;DHT22;34247;50.064;19.970;2023-03-21T04:22:24;26.10;33.00
21085;DHT22;34247;50.064;19.970;2023-03-21T04:23:29;26.10;33.00
21085;DHT22;34247;50.064;19.970;2023-03-21T04:24:33;26.00;32.80
21085;DHT22;34247;50.064;19.970;2023-03-21T04:25:39;26.10;32.90
21085;DHT22;34247;50.064;19.970;2023-03-21T04:26:58;26.10;33.00
21085;DHT22;34247;50.064;19.970;2023-03-21T04:28:02;26.10;33.00
21085;DHT22;34247;50.064;19.970;2023-03-21T04:29:06;26.10;33.00
21085;DHT22;34247;50.064;19.970;2023-03-21T04:30:10;26.00;32.90
21085;DHT22;34247;50.064;19.970;2023-03-21T04:31:15;26.10;33.00
21085;DHT22;34247;50.064;19.970;2023-03-21T04:32:28;26.10;33.00
21085;DHT22;34247;50.064;19.970;2023-03-21T04:33:35;26.10;33.00
21085;DHT22;34247;50.064;19.970;2023-03-21T04:34:43;26.10;32.90
21085;DHT22;34247;50.064;19.970;2023-03-21T04:35:52;26.10;33.00
21085;DHT22;34247;50.064;19.970;2023-03-21T04:37:04;26.10;32.80
21085;DHT22;34247;50.064;19.970;2023-03-21T04:38:13;26.20;32.30
21085;DHT22;34247;50.064;19.970;2023-03-21T04:39:20;26.20;32.80
21085;DHT22;34247;50.064;19.970;2023-03-21T04:40:24;26.20;32.70
21085;DHT22;34247;50.064;19.970;2023-03-21T04:41:28;26.20;32.70
21085;DHT22;34247;50.064;19.970;2023-03-21T04:42:33;26.20;32.70
21085;DHT22;34247;50.064;19.970;2023-03-21T04:43:38;26.20;32.70
21085;DHT22;34247;50.064;19.970;2023-03-21T04:44:41;26.20;33.30
21085;DHT22;34247;50.064;19.970;2023-03-21T04:45:46;26.20;32.70
21085;DHT22;34247;50.064;19.970;2023-03-21T04:46:50;26.20;32.60
21085;DHT22;34247;50.064;19.970;2023-03-21T04:47:54;26.20;32.60
21085;DHT22;34247;50.064;19.970;2023-03-21T04:49:00;26.20;32.60
21085;DHT22;34247;50.064;19.970;2023-03-21T04:50:05;26.20;32.50
21085;DHT22;34247;50.064;19.970;2023-03-21T04:51:09;26.20;32.60
21085;DHT22;34247;50.064;19.970;2023-03-21T04:52:13;26.20;32.70
21085;DHT22;34247;50.064;19.970;2023-03-21T04:53:17;26.20;32.50
21085;DHT22;34247;50.064;19.970;2023-03-21T04:54:22;26.20;32.60
21085;DHT22;34247;50.064;19.970;2023-03-21T04:55:25;26.20;32.60
21085;DHT22;34247;50.064;19.970;2023-03-21T04:56:30;26.10;32.50
21085;DHT22;34247;50.064;19.970;2023-03-21T04:57:38;26.10;32.40
21085;DHT22;34247;50.064;19.970;2023-03-21T04:58:42;26.10;32.50
21085;DHT22;34247;50.064;19.970;2023-03-21T04:59:47;26.10;32.50
21085;DHT22;34247;50.064;19.970;2023-03-21T05:00:50;26.10;32.50
21085;DHT22;34247;50.064;19.970;2023-03-21T05:01:55;26.10;32.40
21085;DHT22;34247;50.064;19.970;2023-03-21T05:03:00;26.10;32.50
21085;DHT22;34247;50.064;19.970;2023-03-21T05:04:05;26.10;32.50
21085;DHT22;34247;50.064;19.970;2023-03-21T05:05:09;26.10;32.50
21085;DHT22;34247;50.064;19.970;2023-03-21T05:06:14;26.10;32.50
21085;DHT22;34247;50.064;19.970;2023-03-21T05:07:18;26.20;32.50
21085;DHT22;34247;50.064;19.970;2023-03-21T05:08:21;26.10;32.40
21085;DHT22;34247;50.064;19.970;2023-03-21T05:09:26;26.20;32.40
21085;DHT22;34247;50.064;19.970;2023-03-21T05:10:31;26.20;32.40
21085;DHT22;34247;50.064;19.970;2023-03-21T05:11:37;26.20;32.40
21085;DHT22;34247;50.064;19.970;2023-03-21T05:12:43;26.10;32.30
21085;DHT22;34247;50.064;19.970;2023-03-21T05:13:47;26.10;32.30
21085;DHT22;34247;50.064;19.970;2023-03-21T05:14:51;26.20;32.50
21085;DHT22;34247;50.064;19.970;2023-03-21T05:15:55;26.20;32.40
21085;DHT22;34247;50.064;19.970;2023-03-21T05:16:59;26.10;32.30
21085;DHT22;34247;50.064;19.970;2023-03-21T05:18:07;26.10;32.30
21085;DHT22;34247;50.064;19.970;2023-03-21T05:19:15;26.10;32.50
21085;DHT22;34247;50.064;19.970;2023-03-21T05:20:19;26.10;32.40
21085;DHT22;34247;50.064;19.970;2023-03-21T05:21:24;26.10;32.40
21085;DHT22;34247;50.064;19.970;2023-03-21T05:22:32;26.10;32.50
21085;DHT22;34247;50.064;19.970;2023-03-21T05:23:42;26.10;32.50
21085;DHT22;34247;50.064;19.970;2023-03-21T05:24:46;26.00;32.40
21085;DHT22;34247;50.064;19.970;2023-03-21T05:25:52;26.00;32.50
21085;DHT22;34247;50.064;19.970;2023-03-21T05:26:56;26.00;32.70
21085;DHT22;34247;50.064;19.970;2023-03-21T05:28:05;26.00;32.70
21085;DHT22;34247;50.064;19.970;2023-03-21T05:29:10;26.00;32.70
21085;DHT22;34247;50.064;19.970;2023-03-21T05:30:18;26.00;32.60
21085;DHT22;34247;50.064;19.970;2023-03-21T05:31:23;25.90;32.60
21085;DHT22;34247;50.064;19.970;2023-03-21T05:32:28;26.00;32.70
21085;DHT22;34247;50.064;19.970;2023-03-21T05:33:32;25.90;32.80
21085;DHT22;34247;50.064;19.970;2023-03-21T05:34:36;25.90;32.80
21085;DHT22;34247;50.064;19.970;2023-03-21T05:35:40;25.90;32.70
21085;DHT22;34247;50.064;19.970;2023-03-21T05:36:44;25.90;32.90
21085;DHT22;34247;50.064;19.970;2023-03-21T05:37:49;25.90;32.90
21085;DHT22;34247;50.064;19.970;2023-03-21T05:38:53;25.90;33.00
21085;DHT22;34247;50.064;19.970;2023-03-21T05:39:57;25.90;32.90
21085;DHT22;34247;50.064;19.970;2023-03-21T05:41:01;26.00;32.80
21085;DHT22;34247;50.064;19.970;2023-03-21T05:42:05;26.00;32.80
21085;DHT22;34247;50.064;19.970;2023-03-21T05:43:09;25.90;32.60
21085;DHT22;34247;50.064;19.970;2023-03-21T05:44:13;25.90;32.60
21085;DHT22;34247;50.064;19.970;2023-03-21T05:45:22;25.90;32.80
21085;DHT22;34247;50.064;19.970;2023-03-21T05:46:26;25.90;32.80
21085;DHT22;34247;50.064;19.970;2023-03-21T05:47:30;25.90;32.80
21085;DHT22;34247;50.064;19.970;2023-03-21T05:48:34;25.90;32.80
21085;DHT22;34247;50.064;19.970;2023-03-21T05:49:39;25.90;32.90
21085;DHT22;34247;50.064;19.970;2023-03-21T05:50:43;25.90;32.90
21085;DHT22;34247;50.064;19.970;2023-03-21T05:51:48;25.80;32.80
21085;DHT22;34247;50.064;19.970;2023-03-21T05:52:52;25.90;33.00
21085;DHT22;34247;50.064;19.970;2023-03-21T05:53:56;26.00;32.90
21085;DHT22;34247;50.064;19.970;2023-03-21T05:55:00;26.00;32.80
21085;DHT22;34247;50.064;19.970;2023-03-21T05:56:03;26.00;32.60
21085;DHT22;34247;50.064;19.970;2023-03-21T05:57:08;26.00;32.50
21085;DHT22;34247;50.064;19.970;2023-03-21T05:58:12;26.00;32.50
21085;DHT22;34247;50.064;19.970;2023-03-21T05:59:16;26.00;32.50
21085;DHT22;34247;50.064;19.970;2023-03-21T06:00:20;26.10;32.40
21085;DHT22;34247;50.064;19.970;2023-03-21T06:01:24;26.10;32.30
21085;DHT22;34247;50.064;19.970;2023-03-21T06:02:27;26.10;32.30
21085;DHT22;34247;50.064;19.970;2023-03-21T06:03:32;26.20;32.20
21085;DHT22;34247;50.064;19.970;2023-03-21T06:04:36;26.20;32.10
21085;DHT22;34247;50.064;19.970;2023-03-21T06:05:40;26.10;32.00
21085;DHT22;34247;50.064;19.970;2023-03-21T06:06:44;26.10;32.10
21085;DHT22;34247;50.064;19.970;2023-03-21T06:07:47;26.10;32.20
21085;DHT22;34247;50.064;19.970;2023-03-21T06:08:51;26.00;32.20
21085;DHT22;34247;50.064;19.970;2023-03-21T06:09:55;26.00;32.30
21085;DHT22;34247;50.064;19.970;2023-03-21T06:10:59;26.00;32.20
21085;DHT22;34247;50.064;19.970;2023-03-21T06:12:03;26.00;32.20
21085;DHT22;34247;50.064;19.970;2023-03-21T06:13:07;26.00;32.20
21085;DHT22;34247;50.064;19.970;2023-03-21T06:14:11;25.90;32.30
21085;DHT22;34247;50.064;19.970;2023-03-21T06:15:15;25.90;32.40
21085;DHT22;34247;50.064;19.970;2023-03-21T06:16:19;25.90;32.40
21085;DHT22;34247;50.064;19.970;2023-03-21T06:17:23;25.90;32.30
21085;DHT22;34247;50.064;19.970;2023-03-21T06:18:27;25.90;32.30
21085;DHT22;34247;50.064;19.970;2023-03-21T06:19:31;25.80;32.40
21085;DHT22;34247;50.064;19.970;2023-03-21T06:20:35;25.80;32.50
21085;DHT22;34247;50.064;19.970;2023-03-21T06:21:41;25.80;32.60
21085;DHT22;34247;50.064;19.970;2023-03-21T06:22:45;25.70;32.50
21085;DHT22;34247;50.064;19.970;2023-03-21T06:23:49;25.80;32.60
21085;DHT22;34247;50.064;19.970;2023-03-21T06:24:56;25.70;32.60
21085;DHT22;34247;50.064;19.970;2023-03-21T06:26:00;25.80;32.70
21085;DHT22;34247;50.064;19.970;2023-03-21T06:27:04;25.80;32.60
21085;DHT22;34247;50.064;19.970;2023-03-21T06:28:08;25.80;32.50
21085;DHT22;34247;50.064;19.970;2023-03-21T06:29:12;25.80;32.40
21085;DHT22;34247;50.064;19.970;2023-03-21T06:30:17;25.80;32.40
21085;DHT22;34247;50.064;19.970;2023-03-21T06:31:21;25.80;32.40
21085;DHT22;34247;50.064;19.970;2023-03-21T06:32:25;25.80;32.50
21085;DHT22;34247;50.064;19.970;2023-03-21T06:33:30;25.80;32.30
21085;DHT22;34247;50.064;19.970;2023-03-21T06:34:34;25.90;32.40
21085;DHT22;34247;50.064;19.970;2023-03-21T06:35:41;25.90;32.50
21085;DHT22;34247;50.064;19.970;2023-03-21T06:36:45;25.80;32.40
21085;DHT22;34247;50.064;19.970;2023-03-21T06:37:49;25.80;32.50
21085;DHT22;34247;50.064;19.970;2023-03-21T06:38:56;25.90;32.60
21085;DHT22;34247;50.064;19.970;2023-03-21T06:40:00;25.80;32.40
21085;DHT22;34247;50.064;19.970;2023-03-21T06:41:04;25.90;32.60
21085;DHT22;34247;50.064;19.970;2023-03-21T06:42:10;25.90;32.50
21085;DHT22;34247;50.064;19.970;2023-03-21T06:43:18;25.90;32.30
21085;DHT22;34247;50.064;19.970;2023-03-21T06:44:22;26.00;32.00
21085;DHT22;34247;50.064;19.970;2023-03-21T06:45:26;26.10;31.90
21085;DHT22;34247;50.064;19.970;2023-03-21T06:46:30;26.10;31.70
21085;DHT22;34247;50.064;19.970;2023-03-21T06:47:34;26.10;31.70
21085;DHT22;34247;50.064;19.970;2023-03-21T06:48:39;26.10;31.60
21085;DHT22;34247;50.064;19.970;2023-03-21T06:49:47;26.10;31.70
21085;DHT22;34247;50.064;19.970;2023-03-21T06:50:52;26.10;31.80
21085;DHT22;34247;50.064;19.970;2023-03-21T06:51:56;26.10;31.80
21085;DHT22;34247;50.064;19.970;2023-03-21T06:53:00;26.10;31.80
21085;DHT22;34247;50.064;19.970;2023-03-21T06:54:04;26.10;31.70
21085;DHT22;34247;50.064;19.970;2023-03-21T06:55:08;26.10;31.70
21085;DHT22;34247;50.064;19.970;2023-03-21T06:56:13;26.10;31.70
21085;DHT22;34247;50.064;19.970;2023-03-21T06:57:17;26.10;31.80
21085;DHT22;34247;50.064;19.970;2023-03-21T06:58:24;26.10;31.70
21085;DHT22;34247;50.064;19.970;2023-03-21T06:59:29;26.10;31.50
21085;DHT22;34247;50.064;19.970;2023-03-21T07:00:33;26.30;31.30
21085;DHT22;34247;50.064;19.970;2023-03-21T07:01:37;26.20;31.10
21085;DHT22;34247;50.064;19.970;2023-03-21T07:02:41;26.30;31.10
21085;DHT22;34247;50.064;19.970;2023-03-21T07:03:44;26.20;31.00
21085;DHT22;34247;50.064;19.970;2023-03-21T07:04:48;26.30;30.90
21085;DHT22;34247;50.064;19.970;2023-03-21T07:05:52;26.20;30.90
21085;DHT22;34247;50.064;19.970;2023-03-21T07:06:56;26.20;30.90
21085;DHT22;34247;50.064;19.970;2023-03-21T07:08:00;26.20;31.00
21085;DHT22;34247;50.064;19.970;2023-03-21T07:09:05;26.10;31.10
21085;DHT22;34247;50.064;19.970;2023-03-21T07:10:09;26.10;31.20
21085;DHT22;34247;50.064;19.970;2023-03-21T07:11:13;26.10;31.40
21085;DHT22;34247;50.064;19.970;2023-03-21T07:12:17;26.10;31.60
21085;DHT22;34247;50.064;19.970;2023-03-21T07:13:21;26.00;31.60
21085;DHT22;34247;50.064;19.970;2023-03-21T07:14:25;26.10;31.50
21085;DHT22;34247;50.064;19.970;2023-03-21T07:15:29;26.00;31.50
21085;DHT22;34247;50.064;19.970;2023-03-21T07:16:33;26.10;31.60
21085;DHT22;34247;50.064;19.970;2023-03-21T07:17:37;26.00;31.60
21085;DHT22;34247;50.064;19.970;2023-03-21T07:18:41;26.10;31.70
21085;DHT22;34247;50.064;19.970;2023-03-21T07:19:44;26.00;31.70
21085;DHT22;34247;50.064;19.970;2023-03-21T07:20:49;26.10;31.70
21085;DHT22;34247;50.064;19.970;2023-03-21T07:21:53;26.10;31.80
21085;DHT22;34247;50.064;19.970;2023-03-21T07:22:57;26.10;31.90
21085;DHT22;34247;50.064;19.970;2023-03-21T07:24:01;26.20;32.10
21085;DHT22;34247;50.064;19.970;2023-03-21T07:25:06;26.20;32.20
21085;DHT22;34247;50.064;19.970;2023-03-21T07:26:11;26.30;32.30
21085;DHT22;34247;50.064;19.970;2023-03-21T07:27:17;26.50;32.20
21085;DHT22;34247;50.064;19.970;2023-03-21T07:28:21;26.60;32.30
21085;DHT22;34247;50.064;19.970;2023-03-21T07:29:25;26.80;32.20
21085;DHT22;34247;50.064;19.970;2023-03-21T07:30:29;27.00;32.00
21085;DHT22;34247;50.064;19.970;2023-03-21T07:31:33;27.20;31.50
21085;DHT22;34247;50.064;19.970;2023-03-21T07:32:38;27.60;29.80
21085;DHT22;34247;50.064;19.970;2023-03-21T07:33:42;27.70;29.80
21085;DHT22;34247;50.064;19.970;2023-03-21T07:34:46;27.90;29.70
21085;DHT22;34247;50.064;19.970;2023-03-21T07:35:51;28.00;29.70
21085;DHT22;34247;50.064;19.970;2023-03-21T07:36:56;28.00;29.50
21085;DHT22;34247;50.064;19.970;2023-03-21T07:37:59;28.20;29.50
21085;DHT22;34247;50.064;19.970;2023-03-21T07:39:04;28.20;29.40
21085;DHT22;34247;50.064;19.970;2023-03-21T07:40:10;28.30;28.80
21085;DHT22;34247;50.064;19.970;2023-03-21T07:41:16;28.40;28.50
21085;DHT22;34247;50.064;19.970;2023-03-21T07:42:20;28.40;28.80
21085;DHT22;34247;50.064;19.970;2023-03-21T07:43:24;28.50;28.40
21085;DHT22;34247;50.064;19.970;2023-03-21T07:44:29;28.60;27.80
21085;DHT22;34247;50.064;19.970;2023-03-21T07:45:32;28.70;27.70
21085;DHT22;34247;50.064;19.970;2023-03-21T07:46:36;28.60;27.70
21085;DHT22;34247;50.064;19.970;2023-03-21T07:47:40;28.70;27.90
21085;DHT22;34247;50.064;19.970;2023-03-21T07:48:44;28.70;27.60
21085;DHT22;34247;50.064;19.970;2023-03-21T07:49:48;28.60;27.70
21085;DHT22;34247;50.064;19.970;2023-03-21T07:50:52;28.70;27.90
21085;DHT22;34247;50.064;19.970;2023-03-21T07:51:59;28.60;27.90
21085;DHT22;34247;50.064;19.970;2023-03-21T07:53:07;28.60;28.00
21085;DHT22;34247;50.064;19.970;2023-03-21T07:54:11;28.60;27.70
21085;DHT22;34247;50.064;19.970;2023-03-21T07:55:24;28.60;27.50
21085;DHT22;34247;50.064;19.970;2023-03-21T07:56:28;28.60;27.50
21085;DHT22;34247;50.064;19.970;2023-03-21T07:57:32;28.50;27.50
21085;DHT22;34247;50.064;19.970;2023-03-21T07:58:36;28.50;27.70
21085;DHT22;34247;50.064;19.970;2023-03-21T07:59:40;28.50;27.50
21085;DHT22;34247;50.064;19.970;2023-03-21T08:00:44;28.40;27.70
21085;DHT22;34247;50.064;19.970;2023-03-21T08:01:48;28.40;27.80
21085;DHT22;34247;50.064;19.970;2023-03-21T08:02:55;28.40;27.90
21085;DHT22;34247;50.064;19.970;2023-03-21T08:04:01;28.30;28.00
21085;DHT22;34247;50.064;19.970;2023-03-21T08:05:05;28.20;28.10
21085;DHT22;34247;50.064;19.970;2023-03-21T08:06:09;28.10;28.20
21085;DHT22;34247;50.064;19.970;2023-03-21T08:07:13;28.10;28.20
21085;DHT22;34247;50.064;19.970;2023-03-21T08:08:17;28.10;28.20
21085;DHT22;34247;50.064;19.970;2023-03-21T08:09:22;28.00;28.30
21085;DHT22;34247;50.064;19.970;2023-03-21T08:10:26;28.00;28.40
21085;DHT22;34247;50.064;19.970;2023-03-21T08:11:31;28.00;28.60
21085;DHT22;34247;50.064;19.970;2023-03-21T08:12:34;27.90;28.70
21085;DHT22;34247;50.064;19.970;2023-03-21T08:13:39;27.90;28.70
21085;DHT22;34247;50.064;19.970;2023-03-21T08:14:43;27.90;28.70
21085;DHT22;34247;50.064;19.970;2023-03-21T08:15:49;27.90;28.60
21085;DHT22;34247;50.064;19.970;2023-03-21T08:16:53;27.90;28.60
21085;DHT22;34247;50.064;19.970;2023-03-21T08:17:58;27.90;28.70
21085;DHT22;34247;50.064;19.970;2023-03-21T08:19:02;27.90;28.60
21085;DHT22;34247;50.064;19.970;2023-03-21T08:20:08;27.80;28.40
21085;DHT22;34247;50.064;19.970;2023-03-21T08:21:14;27.90;28.00
21085;DHT22;34247;50.064;19.970;2023-03-21T08:22:20;27.80;28.10
21085;DHT22;34247;50.064;19.970;2023-03-21T08:23:25;27.80;28.20
21085;DHT22;34247;50.064;19.970;2023-03-21T08:24:29;28.00;28.10
21085;DHT22;34247;50.064;19.970;2023-03-21T08:25:33;27.90;28.00
21085;DHT22;34247;50.064;19.970;2023-03-21T08:26:38;27.80;28.10
21085;DHT22;34247;50.064;19.970;2023-03-21T08:27:43;27.80;28.30
21085;DHT22;34247;50.064;19.970;2023-03-21T08:28:48;27.80;28.40
21085;DHT22;34247;50.064;19.970;2023-03-21T08:29:52;27.70;28.50
21085;DHT22;34247;50.064;19.970;2023-03-21T08:30:56;27.70;28.70
21085;DHT22;34247;50.064;19.970;2023-03-21T08:32:00;27.60;28.50
21085;DHT22;34247;50.064;19.970;2023-03-21T08:33:05;27.60;28.60
21085;DHT22;34247;50.064;19.970;2023-03-21T08:34:09;27.50;28.70
21085;DHT22;34247;50.064;19.970;2023-03-21T08:35:15;27.50;28.80
21085;DHT22;34247;50.064;19.970;2023-03-21T08:36:21;27.50;28.90
21085;DHT22;34247;50.064;19.970;2023-03-21T08:37:27;27.40;28.90
21085;DHT22;34247;50.064;19.970;2023-03-21T08:38:32;27.40;28.90
21085;DHT22;34247;50.064;19.970;2023-03-21T08:39:37;27.40;29.00
21085;DHT22;34247;50.064;19.970;2023-03-21T08:40:42;27.40;29.10
21085;DHT22;34247;50.064;19.970;2023-03-21T08:41:46;27.40;29.30
21085;DHT22;34247;50.064;19.970;2023-03-21T08:42:54;27.40;29.20
21085;DHT22;34247;50.064;19.970;2023-03-21T08:43:58;27.40;29.30
21085;DHT22;34247;50.064;19.970;2023-03-21T08:45:02;27.30;29.30
21085;DHT22;34247;50.064;19.970;2023-03-21T08:46:09;27.40;29.60
21085;DHT22;34247;50.064;19.970;2023-03-21T08:47:13;27.30;29.50
21085;DHT22;34247;50.064;19.970;2023-03-21T08:48:18;27.30;29.60
21085;DHT22;34247;50.064;19.970;2023-03-21T08:49:22;27.30;29.70
21085;DHT22;34247;50.064;19.970;2023-03-21T08:50:26;27.30;29.80
21085;DHT22;34247;50.064;19.970;2023-03-21T08:51:32;27.30;29.80
21085;DHT22;34247;50.064;19.970;2023-03-21T08:52:36;27.20;29.90
21085;DHT22;34247;50.064;19.970;2023-03-21T08:53:40;27.20;29.90
21085;DHT22;34247;50.064;19.970;2023-03-21T08:54:43;27.20;30.10
21085;DHT22;34247;50.064;19.970;2023-03-21T08:55:49;27.20;30.20
21085;DHT22;34247;50.064;19.970;2023-03-21T08:56:53;27.20;30.10
21085;DHT22;34247;50.064;19.970;2023-03-21T08:58:02;27.10;30.00
21085;DHT22;34247;50.064;19.970;2023-03-21T08:59:06;27.10;30.10
21085;DHT22;34247;50.064;19.970;2023-03-21T09:00:15;27.10;30.50
21085;DHT22;34247;50.064;19.970;2023-03-21T09:01:20;27.10;30.40
21085;DHT22;34247;50.064;19.970;2023-03-21T09:02:23;27.00;30.30
21085;DHT22;34247;50.064;19.970;2023-03-21T09:03:27;27.00;30.40
21085;DHT22;34247;50.064;19.970;2023-03-21T09:04:32;27.00;30.50
21085;DHT22;34247;50.064;19.970;2023-03-21T09:05:37;27.00;30.70
21085;DHT22;34247;50.064;19.970;2023-03-21T09:06:42;27.00;30.70
21085;DHT22;34247;50.064;19.970;2023-03-21T09:07:51;27.00;30.60
21085;DHT22;34247;50.064;19.970;2023-03-21T09:08:55;27.00;30.70
21085;DHT22;34247;50.064;19.970;2023-03-21T09:09:59;27.00;30.70
21085;DHT22;34247;50.064;19.970;2023-03-21T09:11:22;27.10;30.90
21085;DHT22;34247;50.064;19.970;2023-03-21T09:12:26;27.20;30.40
21085;DHT22;34247;50.064;19.970;2023-03-21T09:13:30;27.20;30.30
21085;DHT22;34247;50.064;19.970;2023-03-21T09:14:35;27.10;30.20
21085;DHT22;34247;50.064;19.970;2023-03-21T09:15:38;27.10;30.20
21085;DHT22;34247;50.064;19.970;2023-03-21T09:16:46;27.10;30.30
21085;DHT22;34247;50.064;19.970;2023-03-21T09:17:53;27.10;30.40
21085;DHT22;34247;50.064;19.970;2023-03-21T09:19:00;27.10;30.40
21085;DHT22;34247;50.064;19.970;2023-03-21T09:20:07;27.10;30.10
21085;DHT22;34247;50.064;19.970;2023-03-21T09:21:22;27.20;30.20
21085;DHT22;34247;50.064;19.970;2023-03-21T09:22:27;27.20;30.30
21085;DHT22;34247;50.064;19.970;2023-03-21T09:23:31;27.30;30.30
21085;DHT22;34247;50.064;19.970;2023-03-21T09:24:35;27.30;30.30
21085;DHT22;34247;50.064;19.970;2023-03-21T09:25:39;27.30;30.10
21085;DHT22;34247;50.064;19.970;2023-03-21T09:26:44;27.30;30.00
21085;DHT22;34247;50.064;19.970;2023-03-21T09:27:49;27.40;29.90
21085;DHT22;34247;50.064;19.970;2023-03-21T09:28:54;27.40;29.70
21085;DHT22;34247;50.064;19.970;2023-03-21T09:29:59;27.40;29.70
21085;DHT22;34247;50.064;19.970;2023-03-21T09:31:08;27.50;29.40
21085;DHT22;34247;50.064;19.970;2023-03-21T09:32:17;27.60;29.40
21085;DHT22;34247;50.064;19.970;2023-03-21T09:33:22;27.50;29.50
21085;DHT22;34247;50.064;19.970;2023-03-21T09:34:39;27.60;29.20
21085;DHT22;34247;50.064;19.970;2023-03-21T09:35:44;27.70;29.10
21085;DHT22;34247;50.064;19.970;2023-03-21T09:36:54;27.60;29.00
21085;DHT22;34247;50.064;19.970;2023-03-21T09:38:01;27.50;29.10
21085;DHT22;34247;50.064;19.970;2023-03-21T09:39:09;27.50;29.20
21085;DHT22;34247;50.064;19.970;2023-03-21T09:40:22;27.50;29.10
21085;DHT22;34247;50.064;19.970;2023-03-21T09:42:30;27.60;29.00
21085;DHT22;34247;50.064;19.970;2023-03-21T09:47:56;27.50;29.50
21085;DHT22;34247;50.064;19.970;2023-03-21T09:49:13;27.50;29.40
21085;DHT22;34247;50.064;19.970;2023-03-21T09:50:32;27.50;29.40
21085;DHT22;34247;50.064;19.970;2023-03-21T09:51:48;27.50;29.60
21085;DHT22;34247;50.064;19.970;2023-03-21T09:54:27;27.50;29.30
21085;DHT22;34247;50.064;19.970;2023-03-21T09:55:40;27.50;29.30
21085;DHT22;34247;50.064;19.970;2023-03-21T09:56:45;27.60;29.20
21085;DHT22;34247;50.064;19.970;2023-03-21T09:59:37;27.60;29.20
21085;DHT22;34247;50.064;19.970;2023-03-21T10:00:48;27.70;29.20
21085;DHT22;34247;50.064;19.970;2023-03-21T10:03:42;27.60;29.30
21085;DHT22;34247;50.064;19.970;2023-03-21T10:04:47;27.50;29.30
21085;DHT22;34247;50.064;19.970;2023-03-21T10:05:52;27.50;29.30
21085;DHT22;34247;50.064;19.970;2023-03-21T10:07:02;27.50;29.40
21085;DHT22;34247;50.064;19.970;2023-03-21T10:08:17;27.50;29.40
21085;DHT22;34247;50.064;19.970;2023-03-21T10:09:29;27.50;29.40
21085;DHT22;34247;50.064;19.970;2023-03-21T10:10:38;27.60;28.80
21085;DHT22;34247;50.064;19.970;2023-03-21T10:11:57;27.80;28.50
21085;DHT22;34247;50.064;19.970;2023-03-21T10:13:14;27.70;28.40
21085;DHT22;34247;50.064;19.970;2023-03-21T10:14:35;27.70;28.70
21085;DHT22;34247;50.064;19.970;2023-03-21T10:15:43;27.60;29.20
21085;DHT22;34247;50.064;19.970;2023-03-21T10:16:50;27.60;28.80
21085;DHT22;34247;50.064;19.970;2023-03-21T10:18:02;27.60;28.90
21085;DHT22;34247;50.064;19.970;2023-03-21T10:19:17;27.60;28.90
21085;DHT22;34247;50.064;19.970;2023-03-21T10:20:31;27.70;28.90
21085;DHT22;34247;50.064;19.970;2023-03-21T10:21:42;27.80;29.00
21085;DHT22;34247;50.064;19.970;2023-03-21T10:23:10;27.80;28.90
21085;DHT22;34247;50.064;19.970;2023-03-21T10:24:22;27.80;29.00
21085;DHT22;34247;50.064;19.970;2023-03-21T10:25:35;27.70;28.90
21085;DHT22;34247;50.064;19.970;2023-03-21T10:26:43;27.60;28.90
21085;DHT22;34247;50.064;19.970;2023-03-21T10:27:49;27.60;29.00
21085;DHT22;34247;50.064;19.970;2023-03-21T10:28:58;27.60;29.10
21085;DHT22;34247;50.064;19.970;2023-03-21T10:30:05;27.60;29.10
21085;DHT22;34247;50.064;19.970;2023-03-21T10:31:21;27.60;29.10
21085;DHT22;34247;50.064;19.970;2023-03-21T10:32:28;27.60;29.00
21085;DHT22;34247;50.064;19.970;2023-03-21T10:33:38;27.70;29.00
21085;DHT22;34247;50.064;19.970;2023-03-21T10:34:53;27.80;28.30
21085;DHT22;34247;50.064;19.970;2023-03-21T10:36:30;27.80;28.40
21085;DHT22;34247;50.064;19.970;2023-03-21T10:37:35;27.80;28.50
21085;DHT22;34247;50.064;19.970;2023-03-21T10:38:44;27.80;28.50
21085;DHT22;34247;50.064;19.970;2023-03-21T10:39:56;27.70;28.60
21085;DHT22;34247;50.064;19.970;2023-03-21T10:41:00;27.70;28.70
21085;DHT22;34247;50.064;19.970;2023-03-21T10:42:05;27.70;28.60
21085;DHT22;34247;50.064;19.970;2023-03-21T10:44:39;27.80;28.20
21085;DHT22;34247;50.064;19.970;2023-03-21T10:45:49;27.80;28.40
21085;DHT22;34247;50.064;19.970;2023-03-21T10:47:05;27.80;28.40
21085;DHT22;34247;50.064;19.970;2023-03-21T10:48:12;27.80;28.50
21085;DHT22;34247;50.064;19.970;2023-03-21T10:49:17;27.70;28.60
21085;DHT22;34247;50.064;19.970;2023-03-21T10:50:28;27.70;28.60
21085;DHT22;34247;50.064;19.970;2023-03-21T10:51:35;27.80;28.30
21085;DHT22;34247;50.064;19.970;2023-03-21T10:52:55;27.80;28.10
21085;DHT22;34247;50.064;19.970;2023-03-21T10:54:13;27.80;28.10
21085;DHT22;34247;50.064;19.970;2023-03-21T10:56:39;27.90;27.90
21085;DHT22;34247;50.064;19.970;2023-03-21T10:57:52;27.90;28.00
21085;DHT22;34247;50.064;19.970;2023-03-21T10:59:01;27.90;28.00
21085;DHT22;34247;50.064;19.970;2023-03-21T11:00:11;27.90;27.90
21085;DHT22;34247;50.064;19.970;2023-03-21T11:01:29;27.90;27.80
21085;DHT22;34247;50.064;19.970;2023-03-21T11:02:39;27.90;27.70
21085;DHT22;34247;50.064;19.970;2023-03-21T11:03:44;28.00;27.70
21085;DHT22;34247;50.064;19.970;2023-03-21T11:04:49;27.90;27.70
21085;DHT22;34247;50.064;19.970;2023-03-21T11:06:03;28.00;27.50
21085;DHT22;34247;50.064;19.970;2023-03-21T11:07:12;28.00;27.60
21085;DHT22;34247;50.064;19.970;2023-03-21T11:08:18;27.90;27.60
21085;DHT22;34247;50.064;19.970;2023-03-21T11:09:25;27.90;27.60
21085;DHT22;34247;50.064;19.970;2023-03-21T11:11:01;27.90;27.70
21085;DHT22;34247;50.064;19.970;2023-03-21T11:12:18;27.90;27.60
21085;DHT22;34247;50.064;19.970;2023-03-21T11:13:42;27.90;27.60
21085;DHT22;34247;50.064;19.970;2023-03-21T11:14:48;27.90;27.70
21085;DHT22;34247;50.064;19.970;2023-03-21T11:16:03;27.90;27.60
21085;DHT22;34247;50.064;19.970;2023-03-21T11:17:24;28.00;27.50
21085;DHT22;34247;50.064;19.970;2023-03-21T11:18:32;28.10;27.40
21085;DHT22;34247;50.064;19.970;2023-03-21T11:19:36;28.00;27.30